Time;durP1;ratioP1;P1;durP2;ratioP2;P2;SDS_P1;SDS_P2;PMS_P1;PMS_P2;Temp;Humidity;BMP_temperature;BMP_pressure;BME280_temperature;BME280_humidity;BME280_pressure;Samples;Min_cycle;Max_cycle;Signal;HPM_P1;HPM_P2
2023/07/11 00:05:18;;;;;;;;;;;;;;;;;;5092191;28;19919;-69
2023/07/11 00:09:39;;;;;;;;;;;;;;;;;;5091266;27;19928;-69
2023/07/11 00:14:11;;;;;;;;;;;;;;;;;;5092244;28;19923;-69
2023/07/11 00:24:17;;;;;;;;;;;;;;;;;;5090956;27;19916;-69
2023/07/11 00:28:59;;;;;;;;;;;;;;;;;;5091365;27;19916;-69
2023/07/11 00:36:33;;;;;;;;;;;;;;;;;;5111825;27;20376;-69
2023/07/11 00:40:54;;;;;;;;;;;;;;;;;;5091426;28;19917;-69
2023/07/11 00:43:20;;;;;;;;;;;;;;;;;;5090959;28;20015;-69
2023/07/11 00:45:46;;;;;;;;;;;;;;;;;;5091322;28;20407;-69
2023/07/11 00:52:49;;;;;;;;;;;;;;;;;;5111863;27;19922;-69
2023/07/11 00:55:15;;;;;;;;;;;;;;;;;;5110478;28;19999;-69
2023/07/11 01:01:12;;;;;;;;;;;;;;;;;;5153160;27;20371;-69
2023/07/11 01:03:38;;;;;;;;;;;;;;;;;;5134397;27;19917;-69
2023/07/11 01:07:00;;;;;;;;;;;;;;;;;;5112500;27;19916;-69
2023/07/11 01:10:35;;;;;;;;;;;;;;;;;;5091597;27;19922;-69
2023/07/11 01:13:14;;;;;;;;;;;;;;;;;;5111479;27;19915;-69
2023/07/11 01:15:39;;;;;;;;;;;;;;;;;;5111774;28;19994;-69
2023/07/11 01:18:05;;;;;;;;;;;;;;;;;;5111702;28;19953;-69
2023/07/11 01:20:31;;;;;;;;;;;;;;;;;;5111467;28;19908;-69
2023/07/11 01:22:57;;;;;;;;;;;;;;;;;;5111594;28;19947;-69
2023/07/11 01:27:12;;;;;;;;;;;;;;;;;;5132416;27;20002;-69
2023/07/11 01:30:30;;;;;;;;;;;;;;;;;;5091967;27;19916;-69
2023/07/11 01:32:56;;;;;;;;;;;;;;;;;;5091000;28;19999;-69
2023/07/11 01:35:22;;;;;;;;;;;;;;;;;;5090079;28;19908;-69
2023/07/11 01:39:57;;;;;;;;;;;;;;;;;;5111814;27;19916;-69
2023/07/11 01:42:23;;;;;;;;;;;;;;;;;;5111722;28;20002;-69
2023/07/11 01:44:49;;;;;;;;;;;;;;;;;;5111647;28;19912;-69
2023/07/11 01:47:15;;;;;;;;;;;;;;;;;;5111275;28;19912;-69
2023/07/11 01:52:55;;;;;;;;;;;;;;;;;;5091387;27;19916;-69
2023/07/11 01:55:21;;;;;;;;;;;;;;;;;;5090928;28;19999;-69
2023/07/11 01:58:13;;;;;;;;;;;;;;;;;;5112104;27;19916;-69
2023/07/11 02:00:39;;;;;;;;;;;;;;;;;;5111690;28;20455;-69
2023/07/11 02:03:05;;;;;;;;;;;;;;;;;;5111648;28;19908;-69
2023/07/11 02:08:24;;;;;;;;;;;;;;;;;;5091627;27;19923;-69
2023/07/11 02:14:26;;;;;;;;;;;;;;;;;;5112339;27;19916;-69
2023/07/11 02:16:52;;;;;;;;;;;;;;;;;;5111426;28;20014;-69
2023/07/11 02:19:18;;;;;;;;;;;;;;;;;;5111830;28;19912;-69
2023/07/11 02:24:29;;;;;;;;;;;;;;;;;;5112383;27;19913;-69
2023/07/11 02:26:55;;;;;;;;;;;;;;;;;;5111792;28;20002;-69
2023/07/11 02:30:06;;;;;;;;;;;;;;;;;;5091192;27;19923;-70
2023/07/11 02:32:32;;;;;;;;;;;;;;;;;;5091695;28;19991;-70
2023/07/11 02:35:24;;;;;;;;;;;;;;;;;;5092229;27;19912;-69
2023/07/11 02:43:09;;;;;;;;;;;;;;;;;;5152746;27;20010;-69
2023/07/11 02:51:07;;;;;;;;;;;;;;;;;;5111663;27;19938;-70
2023/07/11 02:54:28;;;;;;;;;;;;;;;;;;5092034;27;19916;-71
2023/07/11 02:56:54;;;;;;;;;;;;;;;;;;5091276;28;19999;-71
2023/07/11 02:59:22;;;;;;;;;;;;;;;;;;5091201;28;19962;-68
2023/07/11 03:02:14;;;;;;;;;;;;;;;;;;5173939;27;20357;-72
2023/07/11 03:04:40;;;;;;;;;;;;;;;;;;5173400;27;19949;-70
2023/07/11 03:07:06;;;;;;;;;;;;;;;;;;5155097;27;20411;-70
2023/07/11 03:11:35;;;;;;;;;;;;;;;;;;5091618;27;20283;-69
2023/07/11 03:16:19;;;;;;;;;;;;;;;;;;5153293;27;19998;-70
2023/07/11 03:21:05;;;;;;;;;;;;;;;;;;5092275;27;19916;-71
2023/07/11 03:23:31;;;;;;;;;;;;;;;;;;5091455;28;20003;-71
2023/07/11 03:27:22;;;;;;;;;;;;;;;;;;5091965;27;19916;-70
2023/07/11 03:31:50;;;;;;;;;;;;;;;;;;5112076;27;19916;-70
2023/07/11 03:35:56;;;;;;;;;;;;;;;;;;5091706;28;20391;-72
2023/07/11 03:38:22;;;;;;;;;;;;;;;;;;5091352;28;19920;-69
2023/07/11 03:44:35;;;;;;;;;;;;;;;;;;5091542;28;19916;-71
2023/07/11 03:48:39;;;;;;;;;;;;;;;;;;5092044;28;19916;-72
2023/07/11 03:55:52;;;;;;;;;;;;;;;;;;5091631;28;19923;-69
2023/07/11 03:58:18;;;;;;;;;;;;;;;;;;5091529;28;19994;-69
2023/07/11 04:06:00;;;;;;;;;;;;;;;;;;5112585;27;19916;-69
2023/07/11 04:10:16;;;;;;;;;;;;;;;;;;5153264;27;19916;-69
2023/07/11 04:12:42;;;;;;;;;;;;;;;;;;5153392;27;20282;-69
2023/07/11 04:16:02;;;;;;;;;;;;;;;;;;5091175;28;19917;-69
2023/07/11 04:18:28;;;;;;;;;;;;;;;;;;5091638;28;20007;-69
2023/07/11 04:20:54;;;;;;;;;;;;;;;;;;5091287;28;19954;-69
2023/07/11 04:23:20;;;;;;;;;;;;;;;;;;5090912;28;19908;-69
2023/07/11 04:25:46;;;;;;;;;;;;;;;;;;5091234;28;19935;-69
2023/07/11 04:28:27;;;;;;;;;;;;;;;;;;5091389;28;19916;-69
2023/07/11 04:30:53;;;;;;;;;;;;;;;;;;5091450;28;20345;-69
2023/07/11 04:33:19;;;;;;;;;;;;;;;;;;5091321;28;19962;-69
2023/07/11 04:35:45;;;;;;;;;;;;;;;;;;5090875;28;19908;-69
2023/07/11 04:38:11;;;;;;;;;;;;;;;;;;5091153;28;19915;-69
2023/07/11 04:40:37;;;;;;;;;;;;;;;;;;5089883;28;19943;-69
2023/07/11 04:43:03;;;;;;;;;;;;;;;;;;5089442;28;20007;-69
2023/07/11 04:45:29;;;;;;;;;;;;;;;;;;5091096;28;19954;-70
2023/07/11 04:47:55;;;;;;;;;;;;;;;;;;5090918;28;19924;-69
2023/07/11 04:51:33;;;;;;;;;;;;;;;;;;5111341;27;19922;-69
2023/07/11 04:53:59;;;;;;;;;;;;;;;;;;5111831;28;19912;-71
2023/07/11 04:56:35;;;;;;;;;;;;;;;;;;5091247;27;19923;-69
2023/07/11 05:02:39;;;;;;;;;;;;;;;;;;5092012;28;19917;-70
2023/07/11 05:05:05;;;;;;;;;;;;;;;;;;5089693;28;20003;-70
2023/07/11 05:12:07;;;;;;;;;;;;;;;;;;5152601;27;20430;-70
2023/07/11 05:16:40;;;;;;;;;;;;;;;;;;5091513;28;19916;-70
2023/07/11 05:19:06;;;;;;;;;;;;;;;;;;5091009;28;19999;-69
2023/07/11 05:21:32;;;;;;;;;;;;;;;;;;5091509;28;20356;-69
2023/07/11 05:25:57;;;;;;;;;;;;;;;;;;5111655;27;19912;-70
2023/07/11 05:28:24;;;;;;;;;;;;;;;;;;5112022;28;20011;-70
2023/07/11 05:31:14;;;;;;;;;;;;;;;;;;5091472;27;19934;-70
2023/07/11 05:34:15;;;;;;;;;;;;;;;;;;5091762;27;19914;-69
2023/07/11 05:36:41;;;;;;;;;;;;;;;;;;5091383;28;20030;-69
2023/07/11 05:39:07;;;;;;;;;;;;;;;;;;5090902;28;19908;-69
2023/07/11 05:43:22;;;;;;;;;;;;;;;;;;5112349;27;19915;-70
2023/07/11 05:45:48;;;;;;;;;;;;;;;;;;5111880;28;19976;-70
2023/07/11 05:48:14;;;;;;;;;;;;;;;;;;5111845;28;20387;-69
2023/07/11 05:55:21;;;;;;;;;;;;;;;;;;5091798;27;19912;-69
2023/07/11 05:57:47;;;;;;;;;;;;;;;;;;5091441;28;19938;-69
2023/07/11 06:02:58;;;;;;;;;;;;;;;;;;5089471;27;20283;-70
2023/07/11 06:05:24;;;;;;;;;;;;;;;;;;5090790;28;19995;-69
2023/07/11 06:07:50;;;;;;;;;;;;;;;;;;5090675;28;19959;-69
2023/07/11 06:11:31;;;;;;;;;;;;;;;;;;5111542;27;19920;-71
2023/07/11 06:13:57;;;;;;;;;;;;;;;;;;5091137;28;19913;-71
2023/07/11 06:18:31;;;;;;;;;;;;;;;;;;5152860;27;20014;-72
2023/07/11 06:21:38;;;;;;;;;;;;;;;;;;5152834;27;19972;-71
2023/07/11 06:24:04;;;;;;;;;;;;;;;;;;5152922;27;19911;-71
2023/07/11 06:26:30;;;;;;;;;;;;;;;;;;5152800;27;19937;-71
2023/07/11 06:28:56;;;;;;;;;;;;;;;;;;5152339;27;19912;-71
2023/07/11 06:31:22;;;;;;;;;;;;;;;;;;5153069;27;20390;-71
2023/07/11 06:35:42;;;;;;;;;;;;;;;;;;5111386;27;19916;-72
2023/07/11 06:38:08;;;;;;;;;;;;;;;;;;5112059;28;19916;-72
2023/07/11 06:40:34;;;;;;;;;;;;;;;;;;5111689;28;19969;-72
2023/07/11 06:43:39;;;;;;;;;;;;;;;;;;5091224;27;19919;-71
2023/07/11 06:46:05;;;;;;;;;;;;;;;;;;5091352;28;19916;-71
2023/07/11 06:48:31;;;;;;;;;;;;;;;;;;5090394;28;19909;-71
2023/07/11 06:50:57;;;;;;;;;;;;;;;;;;5090888;28;19908;-71
2023/07/11 06:55:32;;;;;;;;;;;;;;;;;;5111191;27;20070;-66
2023/07/11 07:01:22;;;;;;;;;;;;;;;;;;5121266;27;20286;-69
2023/07/11 07:06:12;;;;;;;;;;;;;;;;;;5096320;27;19919;-69
2023/07/11 07:08:38;;;;;;;;;;;;;;;;;;5111559;28;19991;-70
2023/07/11 07:11:04;;;;;;;;;;;;;;;;;;5110984;28;19950;-70
2023/07/11 07:13:30;;;;;;;;;;;;;;;;;;5110141;28;19912;-69
2023/07/11 07:15:56;;;;;;;;;;;;;;;;;;5092449;28;19912;-69
2023/07/11 07:18:22;;;;;;;;;;;;;;;;;;5090514;28;19923;-69
2023/07/11 07:20:48;;;;;;;;;;;;;;;;;;5103366;28;19908;-69
2023/07/11 07:23:14;;;;;;;;;;;;;;;;;;5089556;28;19935;-69
2023/07/11 07:25:40;;;;;;;;;;;;;;;;;;5099805;28;19916;-69
2023/07/11 07:31:17;;;;;;;;;;;;;;;;;;5111075;27;19912;-68
2023/07/11 07:33:43;;;;;;;;;;;;;;;;;;5111607;28;20014;-69
2023/07/11 07:36:09;;;;;;;;;;;;;;;;;;5111340;28;19909;-70
2023/07/11 07:38:35;;;;;;;;;;;;;;;;;;5126899;28;19998;-69
2023/07/11 07:41:01;;;;;;;;;;;;;;;;;;5128919;28;19908;-65
2023/07/11 07:43:27;;;;;;;;;;;;;;;;;;5119360;28;20275;-67
2023/07/11 07:45:53;;;;;;;;;;;;;;;;;;5111003;28;19960;-66
2023/07/11 07:48:39;;;;;;;;;;;;;;;;;;5111702;27;20282;-66
2023/07/11 07:51:05;;;;;;;;;;;;;;;;;;5110218;28;19934;-66
2023/07/11 07:53:31;;;;;;;;;;;;;;;;;;5109500;28;20334;-66
2023/07/11 07:55:57;;;;;;;;;;;;;;;;;;5110029;28;19912;-67
2023/07/11 07:58:23;;;;;;;;;;;;;;;;;;5111217;28;20440;-66
2023/07/11 08:00:49;;;;;;;;;;;;;;;;;;5110975;28;20364;-66
2023/07/11 08:03:15;;;;;;;;;;;;;;;;;;5110969;28;20391;-66
2023/07/11 08:05:41;;;;;;;;;;;;;;;;;;5109520;28;20370;-65
2023/07/11 08:08:07;;;;;;;;;;;;;;;;;;5110290;28;19920;-65
2023/07/11 08:12:52;;;;;;;;;;;;;;;;;;5091323;27;20292;-66
2023/07/11 08:15:17;;;;;;;;;;;;;;;;;;5090876;28;20323;-65
2023/07/11 08:17:45;;;;;;;;;;;;;;;;;;5091163;28;19915;-66
2023/07/11 08:22:58;;;;;;;;;;;;;;;;;;5091183;27;19919;-65
2023/07/11 08:25:24;;;;;;;;;;;;;;;;;;5089841;28;19963;-66
2023/07/11 08:27:50;;;;;;;;;;;;;;;;;;5090752;28;20333;-67
2023/07/11 08:30:16;;;;;;;;;;;;;;;;;;5092715;28;20333;-66
2023/07/11 08:32:42;;;;;;;;;;;;;;;;;;5089988;28;19912;-65
2023/07/11 08:35:08;;;;;;;;;;;;;;;;;;5091654;28;19921;-64
2023/07/11 08:37:34;;;;;;;;;;;;;;;;;;5103410;28;19918;-65
2023/07/11 08:42:32;;;;;;;;;;;;;;;;;;5099473;27;19923;-68
2023/07/11 08:44:58;;;;;;;;;;;;;;;;;;5111597;28;19912;-67
2023/07/11 08:47:24;;;;;;;;;;;;;;;;;;5107457;28;20260;-66
2023/07/11 08:52:23;;;;;;;;;;;;;;;;;;5152709;27;20010;-67
2023/07/11 08:54:49;;;;;;;;;;;;;;;;;;5150197;27;19911;-68
2023/07/11 08:57:15;;;;;;;;;;;;;;;;;;5131584;28;19915;-68
2023/07/11 08:59:40;;;;;;;;;;;;;;;;;;5132016;28;19911;-66
2023/07/11 09:02:06;;;;;;;;;;;;;;;;;;5131707;28;20003;-67
2023/07/11 09:04:32;;;;;;;;;;;;;;;;;;5131555;28;19953;-67
2023/07/11 09:06:58;;;;;;;;;;;;;;;;;;5131754;28;19998;-65
2023/07/11 09:09:24;;;;;;;;;;;;;;;;;;5131705;28;19908;-67
2023/07/11 09:13:32;;;;;;;;;;;;;;;;;;5152728;27;19921;-66
2023/07/11 09:15:58;;;;;;;;;;;;;;;;;;5151025;27;20393;-65
2023/07/11 09:18:24;;;;;;;;;;;;;;;;;;5131539;28;19908;-65
2023/07/11 09:22:50;;;;;;;;;;;;;;;;;;5090809;27;19920;-67
2023/07/11 09:25:16;;;;;;;;;;;;;;;;;;5088064;28;19913;-67
2023/07/11 09:27:42;;;;;;;;;;;;;;;;;;5088502;28;19955;-67
2023/07/11 09:30:08;;;;;;;;;;;;;;;;;;5085535;28;19920;-67
2023/07/11 09:32:35;;;;;;;;;;;;;;;;;;5068920;28;20379;-67
2023/07/11 09:35:01;;;;;;;;;;;;;;;;;;5076127;28;19912;-65
2023/07/11 09:37:27;;;;;;;;;;;;;;;;;;5074614;28;19916;-66
2023/07/11 09:39:53;;;;;;;;;;;;;;;;;;5064885;28;19977;-66
2023/07/11 09:42:19;;;;;;;;;;;;;;;;;;5086449;28;19924;-66
2023/07/11 09:44:45;;;;;;;;;;;;;;;;;;5089379;28;20046;-66
2023/07/11 09:47:12;;;;;;;;;;;;;;;;;;5084983;28;19919;-67
2023/07/11 09:49:38;;;;;;;;;;;;;;;;;;5088250;28;20036;-67
2023/07/11 09:52:04;;;;;;;;;;;;;;;;;;5089760;28;19919;-68
2023/07/11 09:54:31;;;;;;;;;;;;;;;;;;5087870;28;20402;-68
2023/07/11 09:56:57;;;;;;;;;;;;;;;;;;5085674;28;19913;-66
2023/07/11 09:59:23;;;;;;;;;;;;;;;;;;5076829;28;19932;-66
2023/07/11 10:01:49;;;;;;;;;;;;;;;;;;5069181;28;19937;-67
2023/07/11 10:04:15;;;;;;;;;;;;;;;;;;5069068;28;19990;-67
2023/07/11 10:06:42;;;;;;;;;;;;;;;;;;5069322;28;19909;-67
2023/07/11 10:09:08;;;;;;;;;;;;;;;;;;5067249;28;20379;-66
2023/07/11 10:11:34;;;;;;;;;;;;;;;;;;5068283;28;19945;-66
2023/07/11 10:14:00;;;;;;;;;;;;;;;;;;5069183;28;19909;-67
2023/07/11 10:16:26;;;;;;;;;;;;;;;;;;5068734;28;20004;-66
2023/07/11 10:18:52;;;;;;;;;;;;;;;;;;5069035;28;19909;-65
2023/07/11 10:21:18;;;;;;;;;;;;;;;;;;5076927;28;19924;-67
2023/07/11 10:23:44;;;;;;;;;;;;;;;;;;5089313;28;20438;-66
2023/07/11 10:26:10;;;;;;;;;;;;;;;;;;5089961;28;19915;-66
2023/07/11 10:28:38;;;;;;;;;;;;;;;;;;5095913;28;19923;-67
2023/07/11 10:31:04;;;;;;;;;;;;;;;;;;5071134;28;19912;-68
2023/07/11 10:33:30;;;;;;;;;;;;;;;;;;5062037;28;19912;-66
2023/07/11 10:35:57;;;;;;;;;;;;;;;;;;5058010;28;19912;-66
2023/07/11 10:38:22;;;;;;;;;;;;;;;;;;5076282;28;19912;-67
2023/07/11 10:40:49;;;;;;;;;;;;;;;;;;5058238;28;20376;-66
2023/07/11 10:43:15;;;;;;;;;;;;;;;;;;5075911;28;19919;-67
2023/07/11 10:45:41;;;;;;;;;;;;;;;;;;5076235;28;19908;-68
2023/07/11 10:48:07;;;;;;;;;;;;;;;;;;5076337;28;19913;-65
2023/07/11 10:50:33;;;;;;;;;;;;;;;;;;5065662;28;19934;-66
2023/07/11 10:52:59;;;;;;;;;;;;;;;;;;5058019;28;20316;-66
2023/07/11 10:55:25;;;;;;;;;;;;;;;;;;5057592;28;20466;-66
2023/07/11 10:57:51;;;;;;;;;;;;;;;;;;5058118;28;20434;-65
2023/07/11 11:00:17;;;;;;;;;;;;;;;;;;5075976;28;19908;-66
2023/07/11 11:02:43;;;;;;;;;;;;;;;;;;5075534;28;19917;-66
2023/07/11 11:05:09;;;;;;;;;;;;;;;;;;5075813;28;20470;-67
2023/07/11 11:07:35;;;;;;;;;;;;;;;;;;5075796;28;19930;-66
2023/07/11 11:10:01;;;;;;;;;;;;;;;;;;5081434;28;19982;-66
2023/07/11 11:12:28;;;;;;;;;;;;;;;;;;5095875;28;20292;-66
2023/07/11 11:14:54;;;;;;;;;;;;;;;;;;5095898;28;19908;-66
2023/07/11 11:17:20;;;;;;;;;;;;;;;;;;5095556;28;19931;-66
2023/07/11 11:19:46;;;;;;;;;;;;;;;;;;5095891;28;20053;-65
2023/07/11 11:22:12;;;;;;;;;;;;;;;;;;5095509;28;19959;-66
2023/07/11 11:24:38;;;;;;;;;;;;;;;;;;5095233;28;19908;-65
2023/07/11 11:27:03;;;;;;;;;;;;;;;;;;5078279;28;19926;-66
2023/07/11 11:29:29;;;;;;;;;;;;;;;;;;5075171;28;19985;-66
2023/07/11 11:31:55;;;;;;;;;;;;;;;;;;5074764;28;19909;-66
2023/07/11 11:34:21;;;;;;;;;;;;;;;;;;5076568;28;19962;-66
2023/07/11 11:36:47;;;;;;;;;;;;;;;;;;5071243;28;19919;-66
2023/07/11 11:39:13;;;;;;;;;;;;;;;;;;5075662;28;19948;-66
2023/07/11 11:41:39;;;;;;;;;;;;;;;;;;5075875;28;19927;-66
2023/07/11 11:44:05;;;;;;;;;;;;;;;;;;5077295;28;19912;-66
2023/07/11 11:46:31;;;;;;;;;;;;;;;;;;5090598;28;20006;-66
2023/07/11 11:48:57;;;;;;;;;;;;;;;;;;5085215;28;20002;-67
2023/07/11 11:51:23;;;;;;;;;;;;;;;;;;5074545;28;19916;-66
2023/07/11 11:53:49;;;;;;;;;;;;;;;;;;5075022;28;19999;-65
2023/07/11 11:56:15;;;;;;;;;;;;;;;;;;5056593;28;19956;-66
2023/07/11 11:58:41;;;;;;;;;;;;;;;;;;5074246;28;19951;-65
2023/07/11 12:01:07;;;;;;;;;;;;;;;;;;5094228;28;19939;-67
2023/07/11 12:03:33;;;;;;;;;;;;;;;;;;5083482;28;20392;-67
2023/07/11 12:05:59;;;;;;;;;;;;;;;;;;5083332;28;19917;-67
2023/07/11 12:08:25;;;;;;;;;;;;;;;;;;5074497;28;19908;-66
2023/07/11 12:10:51;;;;;;;;;;;;;;;;;;5076321;28;20399;-66
2023/07/11 12:13:17;;;;;;;;;;;;;;;;;;5079437;28;19935;-67
2023/07/11 12:15:43;;;;;;;;;;;;;;;;;;5076526;28;19912;-68
2023/07/11 12:18:09;;;;;;;;;;;;;;;;;;5075031;28;19912;-68
2023/07/11 12:20:35;;;;;;;;;;;;;;;;;;5094141;28;20286;-68
2023/07/11 12:23:01;;;;;;;;;;;;;;;;;;5094758;28;19939;-68
2023/07/11 12:25:28;;;;;;;;;;;;;;;;;;5075992;28;19912;-67
2023/07/11 12:27:54;;;;;;;;;;;;;;;;;;5094281;28;19948;-67
2023/07/11 12:30:19;;;;;;;;;;;;;;;;;;5076321;28;19919;-66
2023/07/11 12:32:46;;;;;;;;;;;;;;;;;;5094531;28;19915;-66
2023/07/11 12:35:11;;;;;;;;;;;;;;;;;;5094097;28;19908;-66
2023/07/11 12:37:37;;;;;;;;;;;;;;;;;;5094528;28;19908;-66
2023/07/11 12:40:03;;;;;;;;;;;;;;;;;;5094713;28;20367;-67
2023/07/11 12:42:30;;;;;;;;;;;;;;;;;;5093976;28;20376;-68
2023/07/11 12:44:56;;;;;;;;;;;;;;;;;;5094326;28;19915;-67
2023/07/11 12:47:22;;;;;;;;;;;;;;;;;;5094263;28;19908;-68
2023/07/11 12:49:47;;;;;;;;;;;;;;;;;;5093890;28;19958;-67
2023/07/11 12:52:13;;;;;;;;;;;;;;;;;;5094298;28;19934;-68
2023/07/11 12:54:39;;;;;;;;;;;;;;;;;;5075950;28;19907;-68
2023/07/11 12:57:07;;;;;;;;;;;;;;;;;;5094299;28;19985;-68
2023/07/11 12:59:33;;;;;;;;;;;;;;;;;;5094223;28;19908;-67
2023/07/11 13:01:59;;;;;;;;;;;;;;;;;;5093742;28;19927;-68
2023/07/11 13:04:26;;;;;;;;;;;;;;;;;;5094273;28;20384;-67
2023/07/11 13:06:54;;;;;;;;;;;;;;;;;;5075978;28;19908;-68
2023/07/11 13:09:20;;;;;;;;;;;;;;;;;;5093713;28;20291;-68
2023/07/11 13:11:46;;;;;;;;;;;;;;;;;;5075853;28;19912;-68
2023/07/11 13:14:12;;;;;;;;;;;;;;;;;;5094033;28;19969;-66
2023/07/11 13:16:38;;;;;;;;;;;;;;;;;;5093678;28;19908;-67
2023/07/11 13:19:04;;;;;;;;;;;;;;;;;;5075902;28;19915;-66
2023/07/11 13:21:30;;;;;;;;;;;;;;;;;;5093745;28;19920;-66
2023/07/11 13:23:59;;;;;;;;;;;;;;;;;;5093560;28;19934;-67
2023/07/11 13:26:26;;;;;;;;;;;;;;;;;;5075794;28;19940;-68
2023/07/11 13:28:52;;;;;;;;;;;;;;;;;;5075693;28;19915;-66
2023/07/11 13:31:18;;;;;;;;;;;;;;;;;;5093452;28;19912;-67
2023/07/11 13:33:44;;;;;;;;;;;;;;;;;;5093759;28;19934;-67
2023/07/11 13:36:10;;;;;;;;;;;;;;;;;;5075631;28;19908;-67
2023/07/11 13:38:36;;;;;;;;;;;;;;;;;;5093473;28;20329;-68
2023/07/11 13:41:02;;;;;;;;;;;;;;;;;;5093712;28;20444;-68
2023/07/11 13:43:29;;;;;;;;;;;;;;;;;;5093764;28;19911;-68
2023/07/11 13:45:55;;;;;;;;;;;;;;;;;;5093235;28;19909;-66
2023/07/11 13:48:21;;;;;;;;;;;;;;;;;;5075640;28;19908;-68
2023/07/11 13:50:47;;;;;;;;;;;;;;;;;;5093647;28;19915;-67
2023/07/11 13:53:13;;;;;;;;;;;;;;;;;;5093236;28;19989;-67
2023/07/11 13:55:39;;;;;;;;;;;;;;;;;;5075513;28;19912;-67
2023/07/11 13:58:05;;;;;;;;;;;;;;;;;;5093244;28;19977;-68
2023/07/11 14:00:31;;;;;;;;;;;;;;;;;;5075439;28;19909;-68
2023/07/11 14:02:56;;;;;;;;;;;;;;;;;;5093564;28;20275;-68
2023/07/11 14:05:22;;;;;;;;;;;;;;;;;;5093075;28;20257;-67
2023/07/11 14:07:48;;;;;;;;;;;;;;;;;;5076200;28;19912;-67
2023/07/11 14:10:15;;;;;;;;;;;;;;;;;;5097331;28;20022;-67
2023/07/11 14:12:41;;;;;;;;;;;;;;;;;;5097019;28;19908;-69
2023/07/11 14:15:07;;;;;;;;;;;;;;;;;;5097273;28;19961;-67
2023/07/11 14:17:33;;;;;;;;;;;;;;;;;;5097209;28;19908;-68
2023/07/11 14:19:59;;;;;;;;;;;;;;;;;;5096871;28;19912;-68
2023/07/11 14:22:25;;;;;;;;;;;;;;;;;;5075233;28;19927;-67
2023/07/11 14:24:51;;;;;;;;;;;;;;;;;;5076762;28;20275;-67
2023/07/11 14:27:17;;;;;;;;;;;;;;;;;;5076605;28;19908;-67
2023/07/11 14:29:43;;;;;;;;;;;;;;;;;;5076697;28;19914;-68
2023/07/11 14:32:09;;;;;;;;;;;;;;;;;;5076788;28;20376;-68
2023/07/11 14:34:35;;;;;;;;;;;;;;;;;;5076299;28;20265;-68
2023/07/11 14:37:01;;;;;;;;;;;;;;;;;;5076667;28;20331;-68
2023/07/11 14:39:27;;;;;;;;;;;;;;;;;;5076466;28;20303;-67
2023/07/11 14:41:52;;;;;;;;;;;;;;;;;;5076068;28;19916;-68
2023/07/11 14:44:18;;;;;;;;;;;;;;;;;;5076463;28;19939;-68
2023/07/11 14:46:45;;;;;;;;;;;;;;;;;;5075137;28;19923;-68
2023/07/11 14:49:11;;;;;;;;;;;;;;;;;;5074643;28;20384;-69
2023/07/11 14:51:38;;;;;;;;;;;;;;;;;;5076380;28;19943;-68
2023/07/11 14:54:04;;;;;;;;;;;;;;;;;;5075024;28;19915;-68
2023/07/11 14:56:30;;;;;;;;;;;;;;;;;;5075720;28;19913;-68
2023/07/11 14:58:56;;;;;;;;;;;;;;;;;;5076208;28;19979;-68
2023/07/11 15:01:22;;;;;;;;;;;;;;;;;;5075689;28;19912;-69
2023/07/11 15:03:48;;;;;;;;;;;;;;;;;;5076246;28;19954;-69
2023/07/11 15:06:14;;;;;;;;;;;;;;;;;;5074817;28;20307;-69
2023/07/11 15:08:40;;;;;;;;;;;;;;;;;;5075574;28;19962;-69
2023/07/11 15:11:06;;;;;;;;;;;;;;;;;;5075990;28;19915;-69
2023/07/11 15:13:32;;;;;;;;;;;;;;;;;;5076259;28;19999;-69
2023/07/11 15:15:58;;;;;;;;;;;;;;;;;;5075515;28;19908;-69
2023/07/11 15:18:24;;;;;;;;;;;;;;;;;;5075935;28;19908;-69
2023/07/11 15:20:50;;;;;;;;;;;;;;;;;;5079455;28;19916;-69
2023/07/11 15:23:16;;;;;;;;;;;;;;;;;;5077415;28;19908;-68
2023/07/11 15:25:42;;;;;;;;;;;;;;;;;;5096107;28;19909;-68
2023/07/11 15:28:08;;;;;;;;;;;;;;;;;;5095797;28;19916;-68
2023/07/11 15:30:34;;;;;;;;;;;;;;;;;;5095387;28;20034;-69
2023/07/11 15:33:00;;;;;;;;;;;;;;;;;;5095786;28;19915;-68
2023/07/11 15:35:28;;;;;;;;;;;;;;;;;;5095654;28;19916;-67
2023/07/11 15:37:54;;;;;;;;;;;;;;;;;;5095340;28;19919;-68
2023/07/11 15:40:20;;;;;;;;;;;;;;;;;;5095521;28;19909;-68
2023/07/11 15:42:46;;;;;;;;;;;;;;;;;;5095545;28;20368;-68
2023/07/11 15:45:12;;;;;;;;;;;;;;;;;;5076988;28;20379;-68
2023/07/11 15:47:39;;;;;;;;;;;;;;;;;;5095586;28;20389;-68
2023/07/11 15:50:05;;;;;;;;;;;;;;;;;;5095475;28;19908;-67
2023/07/11 15:52:31;;;;;;;;;;;;;;;;;;5095027;28;19990;-67
2023/07/11 15:54:57;;;;;;;;;;;;;;;;;;5095343;28;19908;-66
2023/07/11 15:57:23;;;;;;;;;;;;;;;;;;5095286;28;19908;-71
2023/07/11 15:59:49;;;;;;;;;;;;;;;;;;5076980;28;19912;-67
2023/07/11 16:02:14;;;;;;;;;;;;;;;;;;5095670;28;20011;-67
2023/07/11 16:04:41;;;;;;;;;;;;;;;;;;5076666;28;20379;-68
2023/07/11 16:07:08;;;;;;;;;;;;;;;;;;5095202;28;19908;-68
2023/07/11 16:09:34;;;;;;;;;;;;;;;;;;5077103;28;20359;-68
2023/07/11 16:12:00;;;;;;;;;;;;;;;;;;5094548;28;19951;-68
2023/07/11 16:14:26;;;;;;;;;;;;;;;;;;5076802;28;19916;-68
2023/07/11 16:16:52;;;;;;;;;;;;;;;;;;5094894;28;19908;-68
2023/07/11 16:19:18;;;;;;;;;;;;;;;;;;5094437;28;20000;-68
2023/07/11 16:21:43;;;;;;;;;;;;;;;;;;5094561;28;19924;-68
2023/07/11 16:24:09;;;;;;;;;;;;;;;;;;5094768;28;20360;-67
2023/07/11 16:26:35;;;;;;;;;;;;;;;;;;5094342;28;20467;-68
2023/07/11 16:29:02;;;;;;;;;;;;;;;;;;5094927;28;19916;-68
2023/07/11 16:31:30;;;;;;;;;;;;;;;;;;5094174;28;20288;-67
2023/07/11 16:33:56;;;;;;;;;;;;;;;;;;5094199;28;20364;-68
2023/07/11 16:36:22;;;;;;;;;;;;;;;;;;5094541;28;19908;-67
2023/07/11 16:38:49;;;;;;;;;;;;;;;;;;5094584;28;20075;-67
2023/07/11 16:41:16;;;;;;;;;;;;;;;;;;5093992;28;19912;-67
2023/07/11 16:43:42;;;;;;;;;;;;;;;;;;5094758;28;20260;-68
2023/07/11 16:46:08;;;;;;;;;;;;;;;;;;5076216;28;19915;-67
2023/07/11 16:48:34;;;;;;;;;;;;;;;;;;5093973;28;20339;-68
2023/07/11 16:51:00;;;;;;;;;;;;;;;;;;5094297;28;19908;-67
2023/07/11 16:53:26;;;;;;;;;;;;;;;;;;5094235;28;19908;-67
2023/07/11 16:55:51;;;;;;;;;;;;;;;;;;5093863;28;19955;-67
2023/07/11 16:58:18;;;;;;;;;;;;;;;;;;5094155;28;19916;-67
2023/07/11 17:00:45;;;;;;;;;;;;;;;;;;5094036;28;20279;-67
2023/07/11 17:03:11;;;;;;;;;;;;;;;;;;5093714;28;19973;-67
2023/07/11 17:05:36;;;;;;;;;;;;;;;;;;5094150;28;20321;-69
2023/07/11 17:08:02;;;;;;;;;;;;;;;;;;5093747;28;20372;-68
2023/07/11 17:10:28;;;;;;;;;;;;;;;;;;5094057;28;20388;-68
2023/07/11 17:12:54;;;;;;;;;;;;;;;;;;5093992;28;20436;-68
2023/07/11 17:15:20;;;;;;;;;;;;;;;;;;5093891;28;19915;-68
2023/07/11 17:17:46;;;;;;;;;;;;;;;;;;5075838;28;20384;-67
2023/07/11 17:20:12;;;;;;;;;;;;;;;;;;5093948;28;19908;-67
2023/07/11 17:22:39;;;;;;;;;;;;;;;;;;5093121;28;20394;-67
2023/07/11 17:25:06;;;;;;;;;;;;;;;;;;5093984;28;19970;-67
2023/07/11 17:27:32;;;;;;;;;;;;;;;;;;5075674;28;19915;-68
2023/07/11 17:29:58;;;;;;;;;;;;;;;;;;5093385;28;20006;-68
2023/07/11 17:32:24;;;;;;;;;;;;;;;;;;5093794;28;19962;-68
2023/07/11 17:34:49;;;;;;;;;;;;;;;;;;5075667;28;19908;-68
2023/07/11 17:37:15;;;;;;;;;;;;;;;;;;5093373;28;20332;-69
2023/07/11 17:39:41;;;;;;;;;;;;;;;;;;5075519;28;20378;-69
2023/07/11 17:42:07;;;;;;;;;;;;;;;;;;5075503;28;19916;-68
2023/07/11 17:44:33;;;;;;;;;;;;;;;;;;5097090;28;19915;-66
2023/07/11 17:46:59;;;;;;;;;;;;;;;;;;5098378;28;19912;-68
2023/07/11 17:49:25;;;;;;;;;;;;;;;;;;5097713;28;19908;-67
2023/07/11 17:51:51;;;;;;;;;;;;;;;;;;5079161;28;19909;-68
2023/07/11 17:54:17;;;;;;;;;;;;;;;;;;5097643;28;19908;-68
2023/07/11 17:58:29;;;;;;;;;;;;;;;;;;5091087;27;20363;-68
2023/07/11 18:00:55;;;;;;;;;;;;;;;;;;5091442;28;19912;-68
2023/07/11 18:03:21;;;;;;;;;;;;;;;;;;5091313;28;19956;-68
2023/07/11 18:05:47;;;;;;;;;;;;;;;;;;5090914;28;19912;-68
2023/07/11 18:08:13;;;;;;;;;;;;;;;;;;5091255;28;19908;-68
2023/07/11 18:10:39;;;;;;;;;;;;;;;;;;5091222;28;20372;-67
2023/07/11 18:13:06;;;;;;;;;;;;;;;;;;5090705;28;20437;-68
2023/07/11 18:15:33;;;;;;;;;;;;;;;;;;5091484;28;19909;-68
2023/07/11 18:18:03;;;;;;;;;;;;;;;;;;5091400;28;20341;-68
2023/07/11 18:20:29;;;;;;;;;;;;;;;;;;5090678;28;19909;-67
2023/07/11 18:28:09;;;;;;;;;;;;;;;;;;5111786;27;19920;-67
2023/07/11 18:30:35;;;;;;;;;;;;;;;;;;5111592;28;19912;-68
2023/07/11 18:33:01;;;;;;;;;;;;;;;;;;5111293;28;19908;-67
2023/07/11 18:35:27;;;;;;;;;;;;;;;;;;5111653;28;19908;-68
2023/07/11 18:37:53;;;;;;;;;;;;;;;;;;5111540;28;19953;-68
2023/07/11 18:40:32;;;;;;;;;;;;;;;;;;5111510;27;20382;-68
2023/07/11 18:42:58;;;;;;;;;;;;;;;;;;5111830;28;19912;-68
2023/07/11 18:45:24;;;;;;;;;;;;;;;;;;5110340;28;19915;-68
2023/07/11 18:47:50;;;;;;;;;;;;;;;;;;5111187;28;19915;-69
2023/07/11 18:50:16;;;;;;;;;;;;;;;;;;5110284;28;19916;-68
2023/07/11 18:52:42;;;;;;;;;;;;;;;;;;5110265;28;19908;-68
2023/07/11 18:55:08;;;;;;;;;;;;;;;;;;5109802;28;19915;-68
2023/07/11 18:57:34;;;;;;;;;;;;;;;;;;5111482;28;19952;-68
2023/07/11 19:00:03;;;;;;;;;;;;;;;;;;5111695;28;19916;-68
2023/07/11 19:02:29;;;;;;;;;;;;;;;;;;5111054;28;20283;-68
2023/07/11 19:07:19;;;;;;;;;;;;;;;;;;5112506;27;20295;-67
2023/07/11 19:09:45;;;;;;;;;;;;;;;;;;5111297;28;20003;-67
2023/07/11 19:12:11;;;;;;;;;;;;;;;;;;5111731;28;19908;-67
2023/07/11 19:14:37;;;;;;;;;;;;;;;;;;5111236;28;19930;-68
2023/07/11 19:17:03;;;;;;;;;;;;;;;;;;5111617;28;19915;-68
2023/07/11 19:21:23;;;;;;;;;;;;;;;;;;5112071;27;19934;-67